Mount Clemens, MI

5:58 PM EDT on May 06, 2015 (GMT -0400)
Clinton Township Area | | Change Station
CLOSE
Current Station
Personal Weather Station
Location: Charter Township Of Clinton, MI
Elevation: 600 ft
Nearby Weather Stations

Elev 600 ft 42.58 °N, 82.93 °W | Updated 22 seconds ago

Haze
Haze
72.0 °F
Feels Like 76 °F
N
3.1
Wind Variable Wind from East

Today
High -- | Low -- °F
--% Chance of Precip.
Yesterday
High -- | Low -- °F
Precip. -- in
6:20 AM 8:36 PM
Waning Gibbous, 92% visible
Pressure 30.21 in
Visibility 6.0 miles
Clouds Mostly Cloudy 22000 ft
Heat Index 76 °F
Dew Point 58 °F
Humidity 62%
Rainfall 0.00 in
Snow Depth Not available.
UV 3 out of 12
Pollen 8.50 out of 12
Air Quality Not available.
Flu Activity Regional
METAR KMTC 062055Z 00000KT 6SM HZ BKN220 20/15 A3018 RMK SLP228 T02010147 56017

More Conditions Fewer Conditions

Pressure 30.21 in
Visibility 6.0 miles
Clouds Mostly Cloudy 22000 ft
Heat Index 76 °F
Dew Point 58 °F
Humidity 62%
Rainfall 0.00 in
Snow Depth Not available.
UV 3 out of 12
Pollen 8.50 out of 12
Air Quality Not available.
Flu Activity Regional
METAR KMTC 062055Z 00000KT 6SM HZ BKN220 20/15 A3018 RMK SLP228 T02010147 56017

More Conditions Fewer Conditions

10-Day Weather Forecast

Almanac

Astronomy

May. 06, 2015 Rise Set
Actual Time
Civil Twilight
Nautical Twilight
Astronomical Twilight
Moon
Length of Visible Light
Length of Day
Tomorrow will be .
, % of the Moon is Illuminated

Today's Extremes

State Highs State Lows

Community

WunderPhotos

Upload Photos

1,819,022 photos uploaded!

WunderBlogs® & News

Nearby

Air Quality

  Air Quality AQ Index Pollutant
Not available.

Snow Depth

Station Depth Elevation

Earthquake Activity

City Distance Mag. Time & Date
Minimum magnitude displayed is 2.5.

Coastal Water Temperatures

Place Temperature

Stations

Nearby Weather Stations

Station Location Temp. Windchill Dew Point Humidity Wind Precip. Elev Updated Type